createdAt,value
2018-12-23T00:01:00.386Z,5.60
2018-12-23T00:03:27.082Z,5.50
2018-12-23T00:05:53.786Z,5.50
2018-12-23T00:08:20.704Z,5.50
2018-12-23T00:10:47.612Z,5.50
2018-12-23T00:13:14.311Z,5.50
2018-12-23T00:15:41.033Z,5.50
2018-12-23T00:18:07.741Z,5.50
2018-12-23T00:20:34.449Z,5.50
2018-12-23T00:23:01.142Z,5.50
2018-12-23T00:25:27.846Z,5.50
2018-12-23T00:27:54.546Z,5.50
2018-12-23T00:30:21.254Z,5.50
2018-12-23T00:32:47.947Z,5.50
2018-12-23T00:35:20.282Z,5.50
2018-12-23T00:37:43.350Z,5.50
2018-12-23T00:40:10.066Z,5.50
2018-12-23T00:42:36.771Z,5.50
2018-12-23T00:45:03.779Z,5.50
2018-12-23T00:47:30.475Z,5.50
2018-12-23T00:49:57.186Z,5.50
2018-12-23T00:52:25.486Z,5.50
2018-12-23T00:54:52.191Z,5.50
2018-12-23T00:57:20.787Z,5.50
2018-12-23T00:59:47.498Z,5.50
2018-12-23T01:02:14.191Z,5.40
2018-12-23T01:04:40.890Z,5.40
2018-12-23T01:07:08.302Z,5.40
2018-12-23T01:09:36.249Z,5.40
2018-12-23T01:12:03.125Z,5.40
2018-12-23T01:14:29.830Z,5.40
2018-12-23T01:16:56.529Z,5.40
2018-12-23T01:19:23.231Z,5.40
2018-12-23T01:21:49.925Z,5.40
2018-12-23T01:24:16.622Z,5.40
2018-12-23T01:26:43.315Z,5.40
2018-12-23T01:29:10.026Z,5.40
2018-12-23T01:31:36.719Z,5.40
2018-12-23T01:34:05.299Z,5.40
2018-12-23T01:36:32.148Z,5.30
2018-12-23T01:38:58.845Z,5.30
2018-12-23T01:41:25.550Z,5.30
2018-12-23T01:43:52.247Z,5.30
2018-12-23T01:46:18.955Z,5.30
2018-12-23T01:48:45.650Z,5.30
2018-12-23T01:51:12.462Z,5.30
2018-12-23T01:53:39.149Z,5.30
2018-12-23T01:56:05.861Z,5.30
2018-12-23T01:58:32.652Z,5.30
2018-12-23T02:00:59.359Z,5.30
2018-12-23T02:03:26.982Z,5.30
2018-12-23T02:05:53.726Z,5.30
2018-12-23T02:08:20.451Z,5.30
2018-12-23T02:10:47.251Z,5.30
2018-12-23T02:13:13.944Z,5.30
2018-12-23T02:15:40.657Z,5.30
2018-12-23T02:18:07.351Z,5.30
2018-12-23T02:20:34.042Z,5.30
2018-12-23T02:23:00.734Z,5.30
2018-12-23T02:25:27.427Z,5.30
2018-12-23T02:27:54.121Z,5.30
2018-12-23T02:30:20.939Z,5.30
2018-12-23T02:32:47.641Z,5.30
2018-12-23T02:35:14.343Z,5.30
2018-12-23T02:37:41.035Z,5.20
2018-12-23T02:40:07.734Z,5.30
2018-12-23T02:42:34.437Z,5.20
2018-12-23T02:45:01.144Z,5.20
2018-12-23T02:47:29.246Z,5.20
2018-12-23T02:49:55.946Z,5.20
2018-12-23T02:52:22.842Z,5.20
2018-12-23T02:54:49.557Z,5.20
2018-12-23T02:57:16.255Z,5.10
2018-12-23T02:59:43.027Z,5.10
2018-12-23T03:02:09.730Z,5.10
2018-12-23T03:04:36.422Z,5.10
2018-12-23T03:07:03.140Z,5.10
2018-12-23T03:09:29.834Z,5.10
2018-12-23T03:11:56.534Z,5.10
2018-12-23T03:14:23.232Z,5.10
2018-12-23T03:16:49.947Z,5.10
2018-12-23T03:19:16.703Z,5.00
2018-12-23T03:21:43.401Z,5.00
2018-12-23T03:24:10.086Z,5.00
2018-12-23T03:26:36.793Z,5.00
2018-12-23T03:29:03.486Z,5.00
2018-12-23T03:31:30.417Z,5.00
2018-12-23T03:33:58.002Z,4.90
2018-12-23T03:36:25.008Z,4.90
2018-12-23T03:38:51.705Z,5.00
2018-12-23T03:41:18.404Z,4.90
2018-12-23T03:43:45.101Z,4.90
2018-12-23T03:46:11.811Z,4.90
2018-12-23T03:48:38.526Z,4.90
2018-12-23T03:51:05.334Z,4.90
2018-12-23T03:53:32.019Z,4.90
2018-12-23T03:55:58.722Z,4.90
2018-12-23T03:58:25.414Z,4.90
2018-12-23T04:00:52.118Z,4.90
2018-12-23T04:03:18.817Z,4.90
2018-12-23T04:05:45.531Z,4.90
2018-12-23T04:08:12.234Z,4.90
2018-12-23T04:10:38.950Z,4.90
2018-12-23T04:13:05.646Z,4.90
2018-12-23T04:15:32.615Z,4.90
2018-12-23T04:17:59.307Z,4.90
2018-12-23T04:20:26.018Z,4.90
2018-12-23T04:22:53.502Z,4.90
2018-12-23T04:25:20.268Z,4.90
2018-12-23T04:27:46.962Z,4.90
2018-12-23T04:30:13.687Z,4.90
2018-12-23T04:32:40.414Z,4.90
2018-12-23T04:35:07.110Z,4.90
2018-12-23T04:37:33.835Z,4.90
2018-12-23T04:40:00.637Z,4.90
2018-12-23T04:42:27.357Z,4.90
2018-12-23T04:44:54.043Z,4.90
2018-12-23T04:47:20.989Z,4.90
2018-12-23T04:49:47.711Z,5.00
2018-12-23T04:52:14.430Z,5.00
2018-12-23T04:54:41.114Z,5.00
2018-12-23T04:57:07.843Z,5.00
2018-12-23T04:59:34.575Z,4.90
2018-12-23T05:02:01.263Z,4.90
2018-12-23T05:04:28.007Z,5.00
2018-12-23T05:06:54.711Z,4.90
2018-12-23T05:09:21.398Z,4.90
2018-12-23T05:11:48.552Z,4.90
2018-12-23T05:14:15.258Z,4.90
2018-12-23T05:16:41.986Z,4.90
2018-12-23T05:19:08.707Z,5.00
2018-12-23T05:21:35.438Z,4.90
2018-12-23T05:24:02.139Z,5.00
2018-12-23T05:26:28.869Z,5.00
2018-12-23T05:28:55.767Z,5.00
2018-12-23T05:31:22.495Z,5.00
2018-12-23T05:33:49.193Z,5.00
2018-12-23T05:36:15.922Z,5.00
2018-12-23T05:38:42.722Z,5.00
2018-12-23T05:41:09.450Z,5.00
2018-12-23T05:43:36.147Z,5.10
2018-12-23T05:46:02.858Z,5.10
2018-12-23T05:48:29.555Z,5.00
2018-12-23T05:50:56.283Z,5.10
2018-12-23T05:53:22.975Z,5.00
2018-12-23T05:55:49.282Z,5.10
2018-12-23T05:58:16.008Z,5.10
2018-12-23T06:00:42.709Z,5.10
2018-12-23T06:03:09.430Z,5.10
2018-12-23T06:05:36.149Z,5.10
2018-12-23T06:08:02.975Z,5.10
2018-12-23T06:10:29.678Z,5.10
2018-12-23T06:12:56.418Z,5.10
2018-12-23T06:15:23.114Z,5.10
2018-12-23T06:17:49.832Z,5.10
2018-12-23T06:20:16.527Z,5.00
2018-12-23T06:22:43.263Z,5.10
2018-12-23T06:25:16.942Z,5.10
2018-12-23T06:27:43.630Z,5.00
2018-12-23T06:30:11.375Z,5.00
2018-12-23T06:32:38.067Z,5.00
2018-12-23T06:35:04.859Z,5.00
2018-12-23T06:37:31.555Z,5.00
2018-12-23T06:39:58.284Z,5.00
2018-12-23T06:42:24.978Z,5.00
2018-12-23T06:44:51.702Z,5.00
2018-12-23T06:47:18.389Z,4.90
2018-12-23T06:49:45.095Z,5.00
2018-12-23T06:52:11.818Z,4.90
2018-12-23T06:54:38.514Z,5.00
2018-12-23T06:57:05.207Z,5.00
2018-12-23T06:59:31.917Z,4.90
2018-12-23T07:01:58.615Z,4.80
2018-12-23T07:04:25.338Z,4.80
2018-12-23T07:06:52.064Z,4.80
2018-12-23T07:09:18.794Z,4.70
2018-12-23T07:11:45.515Z,4.60
2018-12-23T07:14:12.246Z,4.60
2018-12-23T07:16:38.947Z,4.60
2018-12-23T07:19:05.643Z,4.60
2018-12-23T07:21:32.378Z,4.60
2018-12-23T07:23:59.070Z,4.50
2018-12-23T07:26:25.999Z,4.60
2018-12-23T07:28:52.721Z,4.50
2018-12-23T07:31:21.359Z,4.40
2018-12-23T07:33:48.060Z,4.50
2018-12-23T07:36:14.755Z,4.40
2018-12-23T07:38:41.506Z,4.40
2018-12-23T07:41:08.206Z,4.40
2018-12-23T07:43:34.930Z,4.50
2018-12-23T07:46:01.618Z,4.40
2018-12-23T07:48:28.367Z,4.40
2018-12-23T07:50:55.060Z,4.40
2018-12-23T07:53:21.783Z,4.40
2018-12-23T07:55:48.482Z,4.40
2018-12-23T07:58:15.189Z,4.50
2018-12-23T08:00:41.948Z,4.40
2018-12-23T08:03:08.643Z,4.50
2018-12-23T08:05:35.379Z,4.50
2018-12-23T08:08:02.075Z,4.50
2018-12-23T08:10:28.811Z,4.60
2018-12-23T08:12:55.518Z,4.60
2018-12-23T08:15:22.245Z,4.60
2018-12-23T08:17:48.950Z,4.50
2018-12-23T08:20:15.779Z,4.50
2018-12-23T08:22:42.484Z,4.50
2018-12-23T08:25:09.279Z,4.60
2018-12-23T08:27:35.988Z,4.60
2018-12-23T08:30:03.018Z,4.60
2018-12-23T08:32:29.734Z,4.60
2018-12-23T08:34:56.466Z,4.60
2018-12-23T08:37:23.175Z,4.60
2018-12-23T08:39:49.902Z,4.60
2018-12-23T08:42:16.613Z,4.60
2018-12-23T08:44:43.335Z,4.60
2018-12-23T08:47:10.027Z,4.60
2018-12-23T08:49:36.770Z,4.60
2018-12-23T08:52:03.490Z,4.70
2018-12-23T08:54:30.219Z,4.70
2018-12-23T08:56:58.611Z,4.80
2018-12-23T08:59:25.524Z,4.80
2018-12-23T09:01:52.227Z,4.80
2018-12-23T09:04:18.958Z,4.90
2018-12-23T09:06:45.661Z,4.90
2018-12-23T09:09:12.399Z,4.90
2018-12-23T09:11:42.756Z,4.90
2018-12-23T09:14:07.836Z,4.90
2018-12-23T09:16:34.538Z,4.90
2018-12-23T09:19:01.470Z,4.90
2018-12-23T09:21:28.179Z,5.00
2018-12-23T09:23:54.915Z,5.00
2018-12-23T09:26:21.618Z,5.00
2018-12-23T09:28:48.322Z,5.00
2018-12-23T09:31:15.050Z,5.00
2018-12-23T12:16:56.649Z,5.80
2018-12-23T12:23:11.104Z,5.80
2018-12-23T12:25:38.328Z,5.80
2018-12-23T12:28:05.908Z,5.80
2018-12-23T12:30:33.021Z,5.80
2018-12-23T12:32:59.849Z,5.80
2018-12-23T12:35:27.230Z,5.80
2018-12-23T12:37:54.455Z,5.80
2018-12-23T12:40:21.391Z,5.80
2018-12-23T12:42:48.310Z,5.80
2018-12-23T12:45:15.755Z,5.80
2018-12-23T12:47:43.129Z,5.80
2018-12-23T12:50:10.176Z,5.90
2018-12-23T12:52:37.388Z,5.90
2018-12-23T12:55:05.226Z,5.90
2018-12-23T12:57:32.592Z,5.80
2018-12-23T12:59:59.643Z,5.90
2018-12-23T13:02:26.754Z,5.90
2018-12-23T13:04:54.154Z,5.90
2018-12-23T13:07:21.491Z,5.90
2018-12-23T13:09:48.812Z,5.80
2018-12-23T13:12:15.750Z,5.80
2018-12-23T13:14:42.799Z,5.80
2018-12-23T13:17:09.640Z,5.80
2018-12-23T13:19:36.536Z,5.80
2018-12-23T13:22:03.624Z,5.70
2018-12-23T13:24:30.419Z,5.70
2018-12-23T13:26:57.756Z,5.70
2018-12-23T13:29:25.058Z,5.70
2018-12-23T13:31:52.165Z,5.70
2018-12-23T13:34:23.204Z,5.70
2018-12-23T13:36:50.301Z,5.70
2018-12-23T13:39:17.720Z,5.70
2018-12-23T13:41:56.836Z,5.70
2018-12-23T13:44:47.422Z,5.80
2018-12-23T13:47:42.340Z,5.80
2018-12-23T13:50:20.700Z,5.80
2018-12-23T13:53:00.843Z,5.70
2018-12-23T13:55:35.193Z,5.80
2018-12-23T13:58:23.744Z,5.80
2018-12-23T14:01:09.426Z,5.80
2018-12-23T14:03:42.759Z,5.70
2018-12-23T14:06:31.985Z,5.80
2018-12-23T14:09:02.085Z,5.80
2018-12-23T14:11:41.246Z,5.80
2018-12-23T14:14:08.087Z,5.80
2018-12-23T14:16:34.889Z,5.70
2018-12-23T14:19:01.725Z,5.80
2018-12-23T14:21:28.523Z,5.70
2018-12-23T14:23:56.392Z,5.80
2018-12-23T14:26:24.796Z,5.80
2018-12-23T14:28:52.144Z,5.80
2018-12-23T14:31:21.003Z,5.80
2018-12-23T14:33:47.864Z,5.70
2018-12-23T14:36:15.184Z,5.70
2018-12-23T14:38:42.496Z,5.70
2018-12-23T14:41:09.324Z,5.70
2018-12-23T14:43:36.641Z,5.70
2018-12-23T14:46:03.822Z,5.70
2018-12-23T14:48:30.875Z,5.70
2018-12-23T14:50:57.796Z,5.60
2018-12-23T14:53:24.624Z,5.70
2018-12-23T14:56:01.781Z,5.60
2018-12-23T14:58:28.909Z,5.70
2018-12-23T15:00:56.256Z,5.60
2018-12-23T15:03:23.163Z,5.60
2018-12-23T15:05:50.446Z,5.60
2018-12-23T15:08:17.824Z,5.60
2018-12-23T15:10:44.719Z,5.60
2018-12-23T15:13:12.008Z,5.60
2018-12-23T15:15:39.120Z,5.60
2018-12-23T15:18:06.636Z,5.50
2018-12-23T15:20:33.521Z,5.60
2018-12-23T15:23:00.891Z,5.60
2018-12-23T15:25:27.976Z,5.60
2018-12-23T15:27:55.048Z,5.60
2018-12-23T15:30:21.908Z,5.60
2018-12-23T15:32:48.713Z,5.60
2018-12-23T15:35:16.065Z,5.60
2018-12-23T15:37:43.671Z,5.60
2018-12-23T15:40:10.725Z,5.60
2018-12-23T15:42:37.686Z,5.70
2018-12-23T15:45:04.699Z,5.60
2018-12-23T15:47:31.884Z,5.60
2018-12-23T15:49:58.685Z,5.60
2018-12-23T15:52:26.306Z,5.60
2018-12-23T15:54:53.411Z,5.60
2018-12-23T15:57:20.521Z,5.50
2018-12-23T15:59:47.557Z,5.60
2018-12-23T16:02:14.931Z,5.50
2018-12-23T16:04:41.878Z,5.50
2018-12-23T16:07:08.720Z,5.50
2018-12-23T16:09:35.804Z,5.50
2018-12-23T16:12:02.902Z,5.50
2018-12-23T16:14:29.696Z,5.40
2018-12-23T16:16:56.533Z,5.40
2018-12-23T16:19:23.864Z,5.40
2018-12-23T16:21:50.686Z,5.40
2018-12-23T16:24:17.966Z,5.40
2018-12-23T16:26:45.048Z,5.40
2018-12-23T16:29:12.372Z,5.40
2018-12-23T16:31:39.852Z,5.40
2018-12-23T16:34:06.960Z,5.40
2018-12-23T16:36:34.296Z,5.40
2018-12-23T16:39:01.721Z,5.30
2018-12-23T16:41:28.806Z,5.30
2018-12-23T16:43:56.481Z,5.30
2018-12-23T16:46:23.804Z,5.30
2018-12-23T16:48:51.160Z,5.30
2018-12-23T16:51:18.261Z,5.30
2018-12-23T16:53:45.420Z,5.30
2018-12-23T16:56:12.300Z,5.30
2018-12-23T16:58:39.153Z,5.30
2018-12-23T17:01:06.348Z,5.30
2018-12-23T17:03:33.471Z,5.30
2018-12-23T17:06:00.536Z,5.30
2018-12-23T17:08:27.403Z,5.30
2018-12-23T17:10:54.693Z,5.30
2018-12-23T17:13:21.812Z,5.30
2018-12-23T17:15:48.867Z,5.30
2018-12-23T17:18:17.296Z,5.30
2018-12-23T17:20:44.340Z,5.30
2018-12-23T17:23:11.665Z,5.20
2018-12-23T17:25:38.741Z,5.20
2018-12-23T17:28:05.608Z,5.20
2018-12-23T17:30:32.943Z,5.20
2018-12-23T17:33:00.136Z,5.20
2018-12-23T17:35:27.504Z,5.20
2018-12-23T17:37:54.884Z,5.20
2018-12-23T17:40:21.940Z,5.20
2018-12-23T17:42:48.775Z,5.20
2018-12-23T17:45:15.597Z,5.20
2018-12-23T17:47:42.923Z,5.30
2018-12-23T17:50:10.352Z,5.30
2018-12-23T17:52:37.432Z,5.20
2018-12-23T17:55:04.681Z,5.20
2018-12-23T17:57:32.024Z,5.30
2018-12-23T17:59:59.096Z,5.20
2018-12-23T18:02:25.964Z,5.20
2018-12-23T18:04:53.285Z,5.30
2018-12-23T18:07:20.629Z,5.30
2018-12-23T18:09:47.698Z,5.20
2018-12-23T18:12:14.915Z,5.20
2018-12-23T18:14:42.322Z,5.20
2018-12-23T18:17:09.309Z,5.20
2018-12-23T18:19:36.431Z,5.20
2018-12-23T18:22:03.524Z,5.20
2018-12-23T18:24:30.324Z,5.20
2018-12-23T18:26:57.608Z,5.20
2018-12-23T18:29:24.656Z,5.20
2018-12-23T18:31:51.724Z,5.20
2018-12-23T18:34:18.872Z,5.20
2018-12-23T18:36:46.132Z,5.20
2018-12-23T18:39:13.068Z,5.20
2018-12-23T18:41:40.168Z,5.20
2018-12-23T18:44:07.536Z,5.20
2018-12-23T18:46:34.571Z,5.20
2018-12-23T18:49:01.672Z,5.20
2018-12-23T18:51:28.487Z,5.20
2018-12-23T18:53:55.637Z,5.20
2018-12-23T18:56:27.791Z,5.20
2018-12-23T18:58:55.282Z,5.30
2018-12-23T19:01:22.340Z,5.20
2018-12-23T19:03:49.404Z,5.30
2018-12-23T19:06:16.223Z,5.30
2018-12-23T19:08:49.871Z,5.20
2018-12-23T19:11:35.845Z,5.30
2018-12-23T19:14:21.897Z,5.30
2018-12-23T19:17:20.832Z,5.30
2018-12-23T19:19:55.661Z,5.30
2018-12-23T19:22:29.526Z,5.30
2018-12-23T19:25:16.925Z,5.30
2018-12-23T19:27:55.084Z,5.30
2018-12-23T19:30:44.475Z,5.30
2018-12-23T19:33:37.038Z,5.20
2018-12-23T19:36:22.516Z,5.20
2018-12-23T19:39:08.353Z,5.10
2018-12-23T19:41:58.286Z,5.10
2018-12-23T19:44:30.480Z,5.10
2018-12-23T19:47:20.359Z,5.10
2018-12-23T19:49:57.235Z,5.10
2018-12-23T19:52:42.627Z,5.00
2018-12-23T19:55:35.456Z,5.00
2018-12-23T19:58:15.212Z,5.00
2018-12-23T20:01:01.877Z,5.00
2018-12-23T20:03:47.013Z,5.00
2018-12-23T20:06:39.733Z,5.00
2018-12-23T20:09:30.391Z,5.00
2018-12-23T20:12:29.312Z,4.90
2018-12-23T20:15:13.297Z,4.90
2018-12-23T20:17:45.768Z,4.90
2018-12-23T20:20:38.194Z,4.90
2018-12-23T20:23:23.713Z,4.90
2018-12-23T20:26:08.002Z,4.90
2018-12-23T20:29:03.764Z,4.90
2018-12-23T20:31:50.671Z,4.90
2018-12-23T20:34:36.358Z,4.80
2018-12-23T20:37:21.691Z,4.80
2018-12-23T20:40:08.637Z,4.80
2018-12-23T20:42:58.373Z,4.80
2018-12-23T20:45:33.110Z,4.80
2018-12-23T20:48:19.799Z,4.80
2018-12-23T20:51:18.429Z,4.70
2018-12-23T20:54:20.738Z,4.50
2018-12-23T20:57:25.340Z,4.40
2018-12-23T21:00:10.477Z,4.40
2018-12-23T21:02:51.936Z,4.40
2018-12-23T21:05:44.272Z,4.40
2018-12-23T21:08:34.319Z,4.40
2018-12-23T21:11:27.175Z,4.50
2018-12-23T21:14:02.825Z,4.50
2018-12-23T21:16:41.237Z,4.50
2018-12-23T21:19:30.649Z,4.40
2018-12-23T21:22:04.548Z,4.30
2018-12-23T21:25:10.973Z,4.30
2018-12-23T21:27:40.844Z,4.30
2018-12-23T21:30:23.163Z,4.20
2018-12-23T21:33:08.742Z,4.10
2018-12-23T21:35:58.333Z,4.10
2018-12-23T21:38:50.887Z,4.10
2018-12-23T21:41:28.151Z,4.10
2018-12-23T21:44:07.112Z,4.10
2018-12-23T21:46:44.033Z,4.10
2018-12-23T21:49:30.424Z,4.10
2018-12-23T21:52:17.218Z,4.10
2018-12-23T21:54:59.876Z,4.00
2018-12-23T21:57:45.231Z,4.00
2018-12-23T22:00:19.940Z,4.00
2018-12-23T22:02:59.888Z,4.00
2018-12-23T22:05:46.367Z,4.00
2018-12-23T22:08:31.563Z,3.90
2018-12-23T22:11:33.032Z,3.90
2018-12-23T22:13:56.264Z,3.90
2018-12-23T22:16:23.405Z,3.90
2018-12-23T22:18:50.194Z,3.90
2018-12-23T22:21:17.529Z,3.90
2018-12-23T22:23:44.564Z,3.80
2018-12-23T22:26:11.875Z,3.80
2018-12-23T22:28:38.909Z,3.80
2018-12-23T22:31:05.991Z,3.80
2018-12-23T22:33:33.296Z,3.80
2018-12-23T22:36:00.871Z,3.80
2018-12-23T22:38:28.176Z,3.80
2018-12-23T22:40:57.202Z,3.80
2018-12-23T22:43:24.095Z,3.80
2018-12-23T22:45:51.184Z,3.80
2018-12-23T22:48:19.019Z,3.80
2018-12-23T22:50:45.833Z,3.70
2018-12-23T22:53:13.144Z,3.70
2018-12-23T22:55:40.229Z,3.70
2018-12-23T22:58:07.392Z,3.70
2018-12-23T23:00:34.860Z,3.60
2018-12-23T23:03:09.037Z,3.70
2018-12-23T23:05:30.476Z,3.60
2018-12-23T23:07:57.400Z,3.60
2018-12-23T23:10:24.675Z,3.60
2018-12-23T23:12:51.494Z,3.60
2018-12-23T23:15:20.702Z,3.50
2018-12-23T23:17:47.516Z,3.50
2018-12-23T23:20:14.848Z,3.50
2018-12-23T23:22:41.664Z,3.40
2018-12-23T23:25:08.468Z,3.40
2018-12-23T23:27:35.560Z,3.40
2018-12-23T23:30:02.875Z,3.30
2018-12-23T23:32:29.932Z,3.30
2018-12-23T23:34:57.013Z,3.30
2018-12-23T23:37:24.104Z,3.30
2018-12-23T23:39:51.152Z,3.30
2018-12-23T23:42:18.464Z,3.30
2018-12-23T23:44:45.523Z,3.20
2018-12-23T23:47:12.363Z,3.30
2018-12-23T23:49:39.160Z,3.20
2018-12-23T23:52:05.993Z,3.30
2018-12-23T23:54:32.876Z,3.30
2018-12-23T23:57:00.231Z,3.30
2018-12-23T23:59:27.364Z,3.30
